createdAt,value
2023-02-13T00:01:27.436Z,32.40
2023-02-13T00:03:55.940Z,32.70
2023-02-13T00:06:25.802Z,30.00
2023-02-13T00:08:54.264Z,28.73
2023-02-13T00:11:22.766Z,28.93
2023-02-13T00:13:51.171Z,27.83
2023-02-13T00:16:20.550Z,29.47
2023-02-13T00:18:48.977Z,27.77
2023-02-13T00:21:17.426Z,24.00
2023-02-13T00:23:48.210Z,30.77
2023-02-13T00:26:18.358Z,24.40
2023-02-13T00:28:48.520Z,26.40
2023-02-13T00:31:19.016Z,24.80
2023-02-13T00:33:47.568Z,32.70
2023-02-13T00:36:18.234Z,29.27
2023-02-13T00:38:48.651Z,24.30
2023-02-13T00:41:17.937Z,29.77
2023-02-13T00:43:46.955Z,21.43
2023-02-13T00:46:15.943Z,26.30
2023-02-13T00:48:45.578Z,25.63
2023-02-13T00:51:14.201Z,25.43
2023-02-13T00:53:42.628Z,26.70
2023-02-13T00:56:12.516Z,25.67
2023-02-13T00:58:40.977Z,23.10
2023-02-13T01:01:09.484Z,27.77
2023-02-13T01:03:38.103Z,28.20
2023-02-13T01:06:07.429Z,22.10
2023-02-13T01:08:35.947Z,21.67
2023-02-13T01:11:04.395Z,24.87
2023-02-13T01:13:34.496Z,24.97
2023-02-13T01:16:02.963Z,31.50
2023-02-13T01:18:31.635Z,29.50
2023-02-13T01:21:02.175Z,27.43
2023-02-13T01:23:34.217Z,31.80
2023-02-13T01:26:04.569Z,26.57
2023-02-13T01:28:34.808Z,23.30
2023-02-13T01:31:03.769Z,26.10
2023-02-13T01:33:32.334Z,27.43
2023-02-13T01:36:00.767Z,21.73
2023-02-13T01:38:29.693Z,23.97
2023-02-13T01:40:59.277Z,25.53
2023-02-13T01:43:46.777Z,24.37
2023-02-13T01:46:19.189Z,24.10
2023-02-13T01:48:50.819Z,26.07
2023-02-13T01:51:24.562Z,21.93
2023-02-13T01:53:59.897Z,27.43
2023-02-13T01:56:34.613Z,26.53
2023-02-13T01:59:09.794Z,26.77
2023-02-13T02:01:38.722Z,29.17
2023-02-13T02:04:11.669Z,23.70
2023-02-13T02:06:45.570Z,22.77
2023-02-13T02:09:27.096Z,26.30
2023-02-13T02:12:02.024Z,29.37
2023-02-13T02:14:32.582Z,28.30
2023-02-13T02:17:01.015Z,24.30
2023-02-13T02:19:39.500Z,29.50
2023-02-13T02:22:43.172Z,26.70
2023-02-13T02:25:42.806Z,23.73
2023-02-13T02:28:45.057Z,23.93
2023-02-13T02:31:55.396Z,25.20
2023-02-13T02:34:38.624Z,22.03
2023-02-13T02:37:17.812Z,22.33
2023-02-13T02:39:58.367Z,22.87
2023-02-13T02:42:36.412Z,22.10
2023-02-13T02:45:13.305Z,22.33
2023-02-13T02:48:07.677Z,20.37
2023-02-13T02:50:43.079Z,21.43
2023-02-13T02:53:26.600Z,19.43
2023-02-13T02:56:03.212Z,20.40
2023-02-13T02:58:56.892Z,20.83
2023-02-13T03:01:49.354Z,21.80
2023-02-13T03:04:39.237Z,21.37
2023-02-13T03:07:13.210Z,27.47
2023-02-13T03:10:01.689Z,26.80
2023-02-13T03:12:59.761Z,21.47
2023-02-13T03:15:30.162Z,19.03
2023-02-13T03:18:17.872Z,21.93
2023-02-13T03:21:10.540Z,22.30
2023-02-13T03:23:50.866Z,26.13
2023-02-13T03:26:50.757Z,24.07
2023-02-13T03:29:55.293Z,20.57
2023-02-13T03:32:29.442Z,21.63
2023-02-13T03:35:31.122Z,23.07
2023-02-13T03:38:05.703Z,18.87
2023-02-13T03:41:02.877Z,20.00
2023-02-13T03:43:37.057Z,17.23
2023-02-13T03:46:06.898Z,16.47
2023-02-13T03:48:56.436Z,20.90
2023-02-13T03:51:30.749Z,20.57
2023-02-13T03:54:03.499Z,18.73
2023-02-13T03:56:53.451Z,20.37
2023-02-13T03:59:28.069Z,21.13
2023-02-13T04:02:06.247Z,21.63
2023-02-13T04:04:45.185Z,19.07
2023-02-13T04:07:29.787Z,19.77
2023-02-13T04:10:00.696Z,19.30
2023-02-13T04:12:40.382Z,15.67
2023-02-13T04:15:16.010Z,16.83
2023-02-13T04:17:48.472Z,17.77
2023-02-13T04:20:17.394Z,18.83
2023-02-13T04:22:46.363Z,17.20
2023-02-13T04:25:16.854Z,14.70
2023-02-13T04:27:46.759Z,16.33
2023-02-13T04:30:15.998Z,15.20
2023-02-13T04:32:44.553Z,15.43
2023-02-13T04:35:13.879Z,16.23
2023-02-13T04:37:42.364Z,16.50
2023-02-13T04:40:11.822Z,17.50
2023-02-13T04:42:40.294Z,16.07
2023-02-13T04:45:11.468Z,27.07
2023-02-13T04:47:39.917Z,24.57
2023-02-13T04:50:09.533Z,22.80
2023-02-13T04:52:37.982Z,21.50
2023-02-13T04:55:07.009Z,17.50
2023-02-13T04:57:35.444Z,16.00
2023-02-13T05:00:04.114Z,17.23
2023-02-13T05:02:34.195Z,17.20
2023-02-13T05:05:02.625Z,26.30
2023-02-13T05:07:30.984Z,20.73
2023-02-13T05:09:59.395Z,22.27
2023-02-13T05:12:27.950Z,19.50
2023-02-13T05:14:56.306Z,27.57
2023-02-13T05:17:27.265Z,21.00
2023-02-13T05:19:59.345Z,16.17
2023-02-13T05:22:45.280Z,17.07
2023-02-13T05:25:13.673Z,15.57
2023-02-13T05:27:42.143Z,14.13
2023-02-13T05:30:11.598Z,14.23
2023-02-13T05:32:40.282Z,15.17
2023-02-13T05:35:10.737Z,21.80
2023-02-13T05:37:39.161Z,19.43
2023-02-13T05:40:09.047Z,15.57
2023-02-13T05:42:37.404Z,18.60
2023-02-13T05:45:06.642Z,15.80
2023-02-13T05:47:35.090Z,16.40
2023-02-13T05:50:03.605Z,16.23
2023-02-13T05:52:33.448Z,17.97
2023-02-13T05:55:02.143Z,14.27
2023-02-13T05:57:30.576Z,17.47
2023-02-13T05:59:59.770Z,14.10
2023-02-13T06:02:28.175Z,15.93
2023-02-13T06:04:56.719Z,15.30
2023-02-13T06:07:25.103Z,16.93
2023-02-13T06:09:54.933Z,14.93
2023-02-13T06:12:23.336Z,16.20
2023-02-13T06:14:51.695Z,18.67
2023-02-13T06:17:20.158Z,22.53
2023-02-13T06:19:48.522Z,16.07
2023-02-13T06:22:16.891Z,15.33
2023-02-13T06:24:45.224Z,13.93
2023-02-13T06:27:15.052Z,16.27
2023-02-13T06:29:43.461Z,16.87
2023-02-13T06:32:11.807Z,15.03
2023-02-13T06:34:40.329Z,13.83
2023-02-13T06:37:08.758Z,18.13
2023-02-13T06:39:37.069Z,14.57
2023-02-13T06:42:05.743Z,15.97
2023-02-13T06:44:35.491Z,22.00
2023-02-13T06:47:03.947Z,14.13
2023-02-13T06:49:32.652Z,13.63
2023-02-13T06:52:01.105Z,12.60
2023-02-13T06:54:44.993Z,16.30
2023-02-13T06:57:16.075Z,13.07
2023-02-13T06:59:45.807Z,17.90
2023-02-13T07:02:14.722Z,12.53
2023-02-13T07:04:43.214Z,14.37
2023-02-13T07:07:11.625Z,18.73
2023-02-13T07:09:41.243Z,13.47
2023-02-13T07:12:09.869Z,12.57
2023-02-13T07:14:38.186Z,18.20
2023-02-13T07:17:08.073Z,14.43
2023-02-13T07:19:36.501Z,12.63
2023-02-13T07:22:04.991Z,13.53
2023-02-13T07:24:35.504Z,12.70
2023-02-13T07:27:03.975Z,13.63
2023-02-13T07:29:32.477Z,15.07
2023-02-13T07:32:01.023Z,13.93
2023-02-13T07:34:32.272Z,14.40
2023-02-13T07:37:00.743Z,16.13
2023-02-13T07:39:29.292Z,13.70
2023-02-13T07:41:58.516Z,12.80
2023-02-13T07:44:28.120Z,15.03
2023-02-13T07:46:56.650Z,23.00
2023-02-13T07:49:25.063Z,21.13
2023-02-13T07:51:54.878Z,17.63
2023-02-13T07:54:24.250Z,17.47
2023-02-13T07:56:52.745Z,17.07
2023-02-13T07:59:21.136Z,17.33
2023-02-13T08:01:49.682Z,17.70
2023-02-13T08:04:18.403Z,14.70
2023-02-13T08:06:46.949Z,12.80
2023-02-13T08:09:39.670Z,14.43
2023-02-13T08:12:11.649Z,13.87
2023-02-13T08:14:40.151Z,15.17
2023-02-13T08:17:08.564Z,13.00
2023-02-13T08:19:36.979Z,12.40
2023-02-13T08:22:05.487Z,16.33
2023-02-13T08:24:35.622Z,15.93
2023-02-13T08:27:04.147Z,20.97
2023-02-13T08:29:32.968Z,15.77
2023-02-13T08:32:01.455Z,13.60
2023-02-13T08:34:31.006Z,13.17
2023-02-13T08:37:00.412Z,18.30
2023-02-13T08:39:29.128Z,20.07
2023-02-13T08:41:59.295Z,16.20
2023-02-13T08:44:27.946Z,23.23
2023-02-13T08:46:56.933Z,26.27
2023-02-13T08:49:25.267Z,29.77
2023-02-13T08:51:53.687Z,32.40
2023-02-13T08:54:22.135Z,29.83
2023-02-13T08:56:50.483Z,26.00
2023-02-13T08:59:20.267Z,18.20
2023-02-13T09:01:49.060Z,16.60
2023-02-13T09:04:18.513Z,15.50
2023-02-13T09:06:47.063Z,14.60
2023-02-13T09:09:16.260Z,22.00
2023-02-13T09:11:44.665Z,15.50
2023-02-13T09:14:13.050Z,18.97
2023-02-13T09:16:43.873Z,20.93
2023-02-13T09:19:12.255Z,14.77
2023-02-13T09:21:40.669Z,13.20
2023-02-13T09:24:09.715Z,9.20
2023-02-13T09:26:38.244Z,12.60
2023-02-13T09:29:06.729Z,9.97
2023-02-13T09:31:35.340Z,10.67
2023-02-13T09:34:05.399Z,9.30
2023-02-13T09:36:36.378Z,10.63
2023-02-13T09:39:04.936Z,11.77
2023-02-13T09:41:38.276Z,10.40
2023-02-13T09:44:12.836Z,11.20
2023-02-13T09:46:44.328Z,13.07
2023-02-13T09:49:18.347Z,13.67
2023-02-13T09:51:54.270Z,13.57
2023-02-13T09:54:22.887Z,15.67
2023-02-13T09:57:00.750Z,15.50
2023-02-13T09:59:44.076Z,15.37
2023-02-13T10:02:46.522Z,14.27
2023-02-13T10:05:44.294Z,17.17
2023-02-13T10:08:27.025Z,17.27
2023-02-13T10:11:06.943Z,18.30
2023-02-13T10:13:54.794Z,19.40
2023-02-13T10:16:27.129Z,21.40
2023-02-13T10:19:02.339Z,20.10
2023-02-13T10:21:36.758Z,20.67
2023-02-13T10:24:13.181Z,23.20
2023-02-13T10:26:45.853Z,25.30
2023-02-13T10:29:36.371Z,22.20
2023-02-13T10:32:08.540Z,23.70
2023-02-13T10:34:42.712Z,23.07
2023-02-13T10:37:17.334Z,20.03
2023-02-13T10:39:49.664Z,23.03
2023-02-13T10:42:29.004Z,24.43
2023-02-13T10:45:08.935Z,25.53
2023-02-13T10:47:50.539Z,23.63
2023-02-13T10:50:28.113Z,26.53
2023-02-13T10:53:15.275Z,26.50
2023-02-13T10:56:05.056Z,30.97
2023-02-13T10:58:46.686Z,29.97
2023-02-13T11:01:26.694Z,29.70
2023-02-13T11:04:06.586Z,31.53
2023-02-13T11:06:38.017Z,29.73
2023-02-13T11:09:08.678Z,28.50
2023-02-13T11:11:40.522Z,26.53
2023-02-13T11:14:15.778Z,29.37
2023-02-13T11:16:57.283Z,33.07
2023-02-13T11:19:34.148Z,34.10
2023-02-13T11:22:06.989Z,29.80
2023-02-13T11:24:38.071Z,28.97
2023-02-13T11:27:13.036Z,29.17
2023-02-13T11:29:54.090Z,29.63
2023-02-13T11:32:24.908Z,29.40
2023-02-13T11:34:55.014Z,32.77
2023-02-13T11:37:29.025Z,29.63
2023-02-13T11:40:01.607Z,32.27
2023-02-13T11:42:32.902Z,31.70
2023-02-13T11:45:03.883Z,32.83
2023-02-13T11:47:40.740Z,29.23
2023-02-13T11:50:22.634Z,27.87
2023-02-13T11:52:58.143Z,28.73
2023-02-13T11:55:31.222Z,27.80
2023-02-13T11:58:02.181Z,29.20
2023-02-13T12:00:40.227Z,25.20
2023-02-13T12:03:28.130Z,30.00
2023-02-13T12:06:05.792Z,25.40
2023-02-13T12:08:36.314Z,28.63
2023-02-13T12:11:15.912Z,35.17
2023-02-13T12:13:45.437Z,30.53
2023-02-13T12:16:21.467Z,33.07
2023-02-13T12:18:54.599Z,30.53
2023-02-13T12:21:38.457Z,32.10
2023-02-13T12:24:20.887Z,33.13
2023-02-13T12:26:59.966Z,33.93
2023-02-13T12:29:51.138Z,29.57
2023-02-13T12:32:21.085Z,30.70
2023-02-13T12:35:35.057Z,30.27
2023-02-13T12:38:08.627Z,30.63
2023-02-13T12:41:01.630Z,34.00
2023-02-13T12:43:48.976Z,28.30
2023-02-13T12:46:29.981Z,31.70
2023-02-13T12:49:06.057Z,29.30
2023-02-13T12:51:46.633Z,28.23
2023-02-13T12:54:35.133Z,29.90
2023-02-13T12:57:20.549Z,33.60
2023-02-13T13:00:07.318Z,28.47
2023-02-13T13:03:11.205Z,29.40
2023-02-13T13:06:10.866Z,30.90
2023-02-13T13:09:03.209Z,27.17
2023-02-13T13:11:52.185Z,30.00
2023-02-13T13:14:28.887Z,31.03
2023-02-13T13:17:06.495Z,31.40
2023-02-13T13:19:46.883Z,33.00
2023-02-13T13:22:21.571Z,28.97
2023-02-13T13:25:02.241Z,31.00
2023-02-13T13:27:34.627Z,28.57
2023-02-13T13:30:06.394Z,29.53
2023-02-13T13:32:38.017Z,30.23
2023-02-13T13:35:07.896Z,27.93
2023-02-13T13:37:42.970Z,28.87
2023-02-13T13:40:30.575Z,30.60
2023-02-13T13:43:05.284Z,27.30
2023-02-13T13:45:44.300Z,29.43
2023-02-13T13:48:40.623Z,30.53
2023-02-13T13:51:11.004Z,31.13
2023-02-13T13:54:17.956Z,27.40
2023-02-13T13:57:08.827Z,29.43
2023-02-13T14:00:03.511Z,29.07
2023-02-13T14:02:42.354Z,24.93
2023-02-13T14:05:28.208Z,23.93
2023-02-13T14:07:58.535Z,29.87
2023-02-13T14:11:09.708Z,28.57
2023-02-13T14:13:40.256Z,27.30
2023-02-13T14:16:12.690Z,25.53
2023-02-13T14:18:49.237Z,25.60
2023-02-13T14:21:25.918Z,20.97
2023-02-13T14:23:54.612Z,22.33
2023-02-13T14:26:35.939Z,23.17
2023-02-13T14:29:23.861Z,20.83
2023-02-13T14:32:02.069Z,24.17
2023-02-13T14:34:33.195Z,19.57
2023-02-13T14:37:21.129Z,23.80
2023-02-13T14:40:31.673Z,19.20
2023-02-13T14:43:08.507Z,16.73
2023-02-13T14:45:49.037Z,15.90
2023-02-13T14:48:17.600Z,17.90
2023-02-13T14:50:48.800Z,19.37
2023-02-13T14:53:25.335Z,15.87
2023-02-13T14:56:00.410Z,16.53
2023-02-13T14:58:33.812Z,20.93
2023-02-13T15:01:06.275Z,14.00
2023-02-13T15:03:45.424Z,15.53
2023-02-13T15:06:23.768Z,15.73
2023-02-13T15:08:54.602Z,14.17
2023-02-13T15:11:38.884Z,15.30
2023-02-13T15:14:22.067Z,14.43
2023-02-13T15:16:56.154Z,12.63
2023-02-13T15:19:26.149Z,14.07
2023-02-13T15:21:57.931Z,15.93
2023-02-13T15:24:29.956Z,14.80
2023-02-13T15:27:03.007Z,11.37
2023-02-13T15:29:44.209Z,13.40
2023-02-13T15:32:22.208Z,11.67
2023-02-13T15:34:50.809Z,13.57
2023-02-13T15:37:23.857Z,14.73
2023-02-13T15:39:53.826Z,12.43
2023-02-13T15:42:22.907Z,12.10
2023-02-13T15:44:54.407Z,12.63
2023-02-13T15:47:28.820Z,12.87
2023-02-13T15:49:58.754Z,12.77
2023-02-13T15:52:33.284Z,15.30
2023-02-13T15:55:03.441Z,14.47
2023-02-13T15:57:32.569Z,13.73
2023-02-13T16:00:02.400Z,11.47
2023-02-13T16:02:45.767Z,9.83
2023-02-13T16:05:17.172Z,11.87
2023-02-13T16:07:52.750Z,7.37
2023-02-13T16:10:29.298Z,5.80
2023-02-13T16:12:59.526Z,5.83
2023-02-13T16:15:31.729Z,5.43
2023-02-13T16:18:00.611Z,7.47
2023-02-13T16:20:30.304Z,7.33
2023-02-13T16:23:02.813Z,14.90
2023-02-13T16:25:36.564Z,5.30
2023-02-13T16:28:16.407Z,4.90
2023-02-13T16:30:46.582Z,8.97
2023-02-13T16:33:28.848Z,4.93
2023-02-13T16:35:58.585Z,4.13
2023-02-13T16:38:33.597Z,4.37
2023-02-13T16:41:06.032Z,4.33
2023-02-13T16:43:36.284Z,5.90
2023-02-13T16:46:21.967Z,7.33
2023-02-13T16:49:05.844Z,5.50
2023-02-13T16:51:39.088Z,6.20
2023-02-13T16:54:19.424Z,7.60
2023-02-13T16:56:52.011Z,5.70
2023-02-13T16:59:29.621Z,13.43
2023-02-13T17:02:15.727Z,4.10
2023-02-13T17:04:46.315Z,10.57
2023-02-13T17:07:17.351Z,11.17
2023-02-13T17:09:45.870Z,28.47
2023-02-13T17:12:19.539Z,23.33
2023-02-13T17:14:48.190Z,20.23
2023-02-13T17:17:19.065Z,15.67
2023-02-13T17:19:48.162Z,9.27
2023-02-13T17:22:24.619Z,6.47
2023-02-13T17:24:53.204Z,8.20
2023-02-13T17:27:24.057Z,6.73
2023-02-13T17:29:52.541Z,8.87
2023-02-13T17:32:24.657Z,7.23
2023-02-13T17:34:53.484Z,7.27
2023-02-13T17:37:24.280Z,5.97
2023-02-13T17:39:53.801Z,7.77
2023-02-13T17:42:26.374Z,5.90
2023-02-13T17:44:55.938Z,6.70
2023-02-13T17:47:25.446Z,9.93
2023-02-13T17:50:01.908Z,5.35
2023-02-13T17:52:32.268Z,5.33
2023-02-13T17:55:00.792Z,7.17
2023-02-13T17:57:30.768Z,4.40
2023-02-13T18:00:03.608Z,5.80
2023-02-13T18:02:42.700Z,7.80
2023-02-13T18:05:11.457Z,5.97
2023-02-13T18:07:41.626Z,4.57
2023-02-13T18:10:13.264Z,4.57
2023-02-13T18:12:43.962Z,6.57
2023-02-13T18:15:13.145Z,3.97
2023-02-13T18:17:42.022Z,6.30
2023-02-13T18:20:14.890Z,5.60
2023-02-13T18:22:43.224Z,5.10
2023-02-13T18:25:13.423Z,4.67
2023-02-13T18:27:43.261Z,5.33
2023-02-13T18:30:14.493Z,6.77
2023-02-13T18:32:43.194Z,5.40
2023-02-13T18:35:11.680Z,6.30
2023-02-13T18:37:41.114Z,5.23
2023-02-13T18:40:10.693Z,4.47
2023-02-13T18:42:40.011Z,7.20
2023-02-13T18:45:11.263Z,4.53
2023-02-13T18:47:39.747Z,6.77
2023-02-13T18:50:10.052Z,4.40
2023-02-13T18:52:38.677Z,7.60
2023-02-13T18:55:07.850Z,7.67
2023-02-13T18:57:36.593Z,6.00
2023-02-13T19:00:07.322Z,7.13
2023-02-13T19:02:37.211Z,6.83
2023-02-13T19:05:06.483Z,6.43
2023-02-13T19:07:34.972Z,7.13
2023-02-13T19:10:03.617Z,6.60
2023-02-13T19:12:32.068Z,5.83
2023-02-13T19:15:00.476Z,7.53
2023-02-13T19:17:28.856Z,6.90
2023-02-13T19:19:58.688Z,7.33
2023-02-13T19:22:27.380Z,6.70
2023-02-13T19:24:55.904Z,9.47
2023-02-13T19:27:24.385Z,9.37
2023-02-13T19:29:52.777Z,9.53
2023-02-13T19:32:21.234Z,7.23
2023-02-13T19:34:49.669Z,8.77
2023-02-13T19:37:19.423Z,6.35
2023-02-13T19:39:47.725Z,8.37
2023-02-13T19:42:16.116Z,9.37
2023-02-13T19:44:44.540Z,11.27
2023-02-13T19:47:13.042Z,6.30
2023-02-13T19:49:41.372Z,6.93
2023-02-13T19:52:09.744Z,8.17
2023-02-13T19:54:40.234Z,6.37
2023-02-13T19:57:08.844Z,6.43
2023-02-13T19:59:37.224Z,7.57
2023-02-13T20:02:05.615Z,6.37
2023-02-13T20:04:36.854Z,6.60
2023-02-13T20:07:06.232Z,7.65
2023-02-13T20:09:37.949Z,7.23
2023-02-13T20:12:08.789Z,7.27
2023-02-13T20:14:37.242Z,7.27
2023-02-13T20:17:06.034Z,10.35
2023-02-13T20:19:34.414Z,8.80
2023-02-13T20:22:02.980Z,9.77
2023-02-13T20:24:33.171Z,10.27
2023-02-13T20:27:01.584Z,10.07
2023-02-13T20:29:31.585Z,11.30
2023-02-13T20:32:00.204Z,10.90
2023-02-13T20:34:31.603Z,9.37
2023-02-13T20:37:06.092Z,8.37
2023-02-13T20:39:34.588Z,8.97
2023-02-13T20:42:03.168Z,11.43
2023-02-13T20:44:33.205Z,8.70
2023-02-13T20:47:01.618Z,9.53
2023-02-13T20:49:30.642Z,7.73
2023-02-13T20:51:59.132Z,9.90
2023-02-13T20:54:27.569Z,9.90
2023-02-13T20:56:56.068Z,9.43
2023-02-13T20:59:24.448Z,11.77
2023-02-13T21:01:54.409Z,8.50
2023-02-13T21:04:22.865Z,10.17
2023-02-13T21:06:51.341Z,8.77
2023-02-13T21:09:20.346Z,9.27
2023-02-13T21:11:48.924Z,10.23
2023-02-13T21:14:17.327Z,9.20
2023-02-13T21:16:45.873Z,14.13
2023-02-13T21:19:19.094Z,9.43
2023-02-13T21:21:48.262Z,11.90
2023-02-13T21:24:18.768Z,12.93
2023-02-13T21:26:48.132Z,7.77
2023-02-13T21:29:16.591Z,8.53
2023-02-13T21:31:47.934Z,12.57
2023-02-13T21:34:18.853Z,11.23
2023-02-13T21:36:47.372Z,8.27
2023-02-13T21:39:15.948Z,8.80
2023-02-13T21:41:45.907Z,9.87
2023-02-13T21:44:15.281Z,8.80
2023-02-13T21:46:45.068Z,9.60
2023-02-13T21:49:15.165Z,9.57
2023-02-13T21:51:45.509Z,9.83
2023-02-13T21:54:14.282Z,8.67
2023-02-13T21:56:44.276Z,9.20
2023-02-13T21:59:15.915Z,9.70
2023-02-13T22:01:50.299Z,8.40
2023-02-13T22:04:19.527Z,11.43
2023-02-13T22:06:52.222Z,9.23
2023-02-13T22:09:22.772Z,9.03
2023-02-13T22:11:52.069Z,8.07
2023-02-13T22:14:20.566Z,10.67
2023-02-13T22:16:51.374Z,9.03
2023-02-13T22:19:20.399Z,10.23
2023-02-13T22:21:50.479Z,8.77
2023-02-13T22:24:18.932Z,8.47
2023-02-13T22:26:47.290Z,8.93
2023-02-13T22:29:18.616Z,10.07
2023-02-13T22:31:48.191Z,8.27
2023-02-13T22:34:17.002Z,10.50
2023-02-13T22:36:46.015Z,9.67
2023-02-13T22:39:16.590Z,9.97
2023-02-13T22:41:45.965Z,8.67
2023-02-13T22:44:14.446Z,8.97
2023-02-13T22:46:43.018Z,7.63
2023-02-13T22:49:11.403Z,14.23
2023-02-13T22:51:39.771Z,8.27
2023-02-13T22:54:08.204Z,14.70
2023-02-13T22:56:38.037Z,10.63
2023-02-13T22:59:06.557Z,9.70
2023-02-13T23:01:35.619Z,9.23
2023-02-13T23:04:04.063Z,8.17
2023-02-13T23:06:32.460Z,9.07
2023-02-13T23:09:02.054Z,7.57
2023-02-13T23:11:47.650Z,6.93
2023-02-13T23:14:18.478Z,7.13
2023-02-13T23:17:04.561Z,10.37
2023-02-13T23:19:33.364Z,6.97
2023-02-13T23:22:01.938Z,8.27
2023-02-13T23:24:31.937Z,7.10
2023-02-13T23:27:01.192Z,11.10
2023-02-13T23:29:31.353Z,9.83
2023-02-13T23:31:59.921Z,7.93
2023-02-13T23:34:28.414Z,8.40
2023-02-13T23:36:56.928Z,8.63
2023-02-13T23:39:25.496Z,8.93
2023-02-13T23:41:53.934Z,7.67
2023-02-13T23:44:22.369Z,8.73
2023-02-13T23:46:52.154Z,7.80
2023-02-13T23:49:21.105Z,8.70
2023-02-13T23:51:49.900Z,9.33
2023-02-13T23:54:19.767Z,9.10
2023-02-13T23:56:50.108Z,8.23
2023-02-13T23:59:19.397Z,8.50
